createdAt,value
2023-04-15T00:02:00.846Z,35.51
2023-04-15T00:04:37.496Z,34.95
2023-04-15T00:07:05.964Z,33.25
2023-04-15T00:09:34.322Z,31.89
2023-04-15T00:12:03.004Z,31.01
2023-04-15T00:14:34.835Z,29.92
2023-04-15T00:17:04.351Z,29.03
2023-04-15T00:19:33.466Z,28.88
2023-04-15T00:22:06.335Z,29.33
2023-04-15T00:24:34.512Z,29.06
2023-04-15T00:27:02.627Z,28.51
2023-04-15T00:29:36.416Z,27.98
2023-04-15T00:32:04.605Z,29.35
2023-04-15T00:34:32.668Z,30.96
2023-04-15T00:37:01.566Z,31.47
2023-04-15T00:39:29.709Z,30.88
2023-04-15T00:41:57.832Z,29.93
2023-04-15T00:44:26.131Z,29.11
2023-04-15T00:46:55.104Z,27.68
2023-04-15T00:49:26.458Z,27.62
2023-04-15T00:51:54.580Z,27.66
2023-04-15T00:54:24.740Z,27.48
2023-04-15T00:56:52.930Z,28.03
2023-04-15T00:59:22.096Z,28.91
2023-04-15T01:01:50.298Z,30.40
2023-04-15T01:04:20.517Z,32.20
2023-04-15T01:06:50.103Z,33.50
2023-04-15T01:09:21.573Z,33.92
2023-04-15T01:11:51.073Z,35.98
2023-04-15T01:14:20.142Z,37.29
2023-04-15T01:16:48.207Z,38.82
2023-04-15T01:19:17.800Z,39.79
2023-04-15T01:21:46.248Z,40.31
2023-04-15T01:24:16.654Z,39.31
2023-04-15T01:26:47.402Z,39.26
2023-04-15T01:29:15.739Z,39.51
2023-04-15T01:31:52.331Z,39.34
2023-04-15T01:34:21.787Z,38.92
2023-04-15T01:36:51.456Z,39.56
2023-04-15T01:39:20.326Z,40.22
2023-04-15T01:41:49.466Z,39.56
2023-04-15T01:44:17.804Z,38.45
2023-04-15T01:46:45.939Z,38.90
2023-04-15T01:49:14.613Z,40.85
2023-04-15T01:51:42.960Z,42.03
2023-04-15T01:54:11.348Z,41.99
2023-04-15T01:56:42.362Z,41.59
2023-04-15T01:59:11.189Z,41.41
2023-04-15T02:01:46.961Z,41.15
2023-04-15T02:04:17.504Z,41.39
2023-04-15T02:06:46.209Z,41.86
2023-04-15T02:09:16.214Z,41.76
2023-04-15T02:11:47.506Z,42.88
2023-04-15T02:14:16.442Z,43.37
2023-04-15T02:16:46.570Z,43.23
2023-04-15T02:19:17.791Z,43.03
2023-04-15T02:21:45.681Z,43.30
2023-04-15T02:24:13.845Z,44.96
2023-04-15T02:26:49.488Z,46.53
2023-04-15T02:29:18.337Z,45.97
2023-04-15T02:31:50.456Z,45.43
2023-04-15T02:34:20.482Z,45.49
2023-04-15T02:36:49.964Z,45.51
2023-04-15T02:39:18.863Z,44.79
2023-04-15T02:41:53.254Z,44.87
2023-04-15T02:44:25.037Z,44.65
2023-04-15T02:46:54.998Z,44.17
2023-04-15T02:49:25.990Z,45.16
2023-04-15T02:51:54.288Z,44.41
2023-04-15T02:54:26.323Z,42.40
2023-04-15T02:56:58.325Z,40.46
2023-04-15T02:59:27.231Z,38.73
2023-04-15T03:01:56.818Z,37.92
2023-04-15T03:04:25.318Z,38.48
2023-04-15T03:06:56.322Z,38.76
2023-04-15T03:09:25.308Z,38.32
2023-04-15T03:11:54.989Z,38.34
2023-04-15T03:14:27.180Z,37.85
2023-04-15T03:16:56.438Z,37.12
2023-04-15T03:19:25.779Z,37.71
2023-04-15T03:21:57.273Z,38.76
2023-04-15T03:24:26.347Z,40.33
2023-04-15T03:26:55.428Z,40.65
2023-04-15T03:29:24.504Z,40.86
2023-04-15T03:32:01.414Z,40.83
2023-04-15T03:34:32.482Z,40.97
2023-04-15T03:37:00.580Z,42.09
2023-04-15T03:39:28.735Z,42.48
2023-04-15T03:41:56.708Z,43.73
2023-04-15T03:44:32.942Z,46.20
2023-04-15T03:47:01.321Z,48.47
2023-04-15T03:49:29.377Z,50.20
2023-04-15T03:52:02.306Z,51.99
2023-04-15T03:54:31.323Z,53.69
2023-04-15T03:57:02.456Z,56.37
2023-04-15T03:59:32.634Z,58.80
2023-04-15T04:02:00.915Z,60.53
2023-04-15T04:04:29.352Z,61.83
2023-04-15T04:06:57.963Z,62.90
2023-04-15T04:09:26.080Z,63.12
2023-04-15T04:11:54.122Z,63.22
2023-04-15T04:14:29.369Z,63.55
2023-04-15T04:16:57.826Z,64.24
2023-04-15T04:19:25.877Z,65.45
2023-04-15T04:21:57.008Z,65.81
2023-04-15T04:24:25.099Z,65.06
2023-04-15T04:28:24.233Z,65.65
2023-04-15T04:30:55.892Z,63.69
2023-04-15T04:33:25.720Z,62.00
2023-04-15T04:35:53.772Z,61.65
2023-04-15T04:38:24.829Z,62.85
2023-04-15T04:40:56.228Z,63.65
2023-04-15T04:43:24.426Z,63.47
2023-04-15T04:45:57.122Z,64.24
2023-04-15T04:48:25.740Z,64.53
2023-04-15T04:50:54.185Z,65.57
2023-04-15T04:53:22.232Z,66.66
2023-04-15T04:55:50.458Z,68.36
2023-04-15T04:58:18.463Z,68.19
2023-04-15T05:00:46.623Z,67.25
2023-04-15T05:03:15.031Z,67.00
2023-04-15T05:05:43.626Z,67.93
2023-04-15T05:08:12.710Z,70.02
2023-04-15T05:10:41.376Z,72.07
2023-04-15T05:13:09.594Z,73.66
2023-04-15T05:15:40.011Z,74.30
2023-04-15T05:18:12.483Z,74.19
2023-04-15T05:20:42.071Z,77.54
2023-04-15T05:23:13.717Z,81.67
2023-04-15T05:25:44.563Z,82.84
2023-04-15T05:28:12.720Z,82.41
2023-04-15T05:30:42.187Z,81.12
2023-04-15T05:33:11.335Z,80.79
2023-04-15T05:35:40.269Z,80.76
2023-04-15T05:40:39.928Z,82.44
2023-04-15T05:43:50.587Z,81.69
2023-04-15T05:46:19.886Z,80.51
2023-04-15T05:48:48.537Z,80.05
2023-04-15T05:51:16.900Z,78.99
2023-04-15T05:53:46.919Z,78.19
2023-04-15T05:56:14.916Z,77.72
2023-04-15T05:58:43.243Z,77.06
2023-04-15T06:03:49.066Z,78.65
2023-04-15T06:06:17.678Z,78.35
2023-04-15T06:08:47.174Z,77.73
2023-04-15T06:11:22.098Z,77.70
2023-04-15T06:13:50.967Z,77.76
2023-04-15T06:16:19.226Z,77.35
2023-04-15T06:18:50.084Z,76.69
2023-04-15T06:21:18.233Z,75.28
2023-04-15T06:23:46.476Z,75.27
2023-04-15T06:26:14.809Z,75.07
2023-04-15T06:28:44.210Z,75.12
2023-04-15T06:31:12.295Z,76.46
2023-04-15T06:33:44.468Z,76.47
2023-04-15T06:36:12.776Z,77.35
2023-04-15T06:41:28.856Z,76.40
2023-04-15T06:43:56.957Z,74.48
2023-04-15T06:46:26.860Z,73.49
2023-04-15T06:48:55.200Z,72.21
2023-04-15T06:51:26.571Z,72.34
2023-04-15T06:53:58.637Z,74.34
2023-04-15T06:56:27.427Z,74.92
2023-04-15T06:58:55.482Z,75.62
2023-04-15T07:01:24.645Z,76.03
2023-04-15T07:03:54.908Z,76.13
2023-04-15T07:06:22.878Z,74.65
2023-04-15T07:08:53.446Z,73.75
2023-04-15T07:13:59.261Z,70.89
2023-04-15T07:16:30.036Z,69.15
2023-04-15T07:19:00.481Z,68.67
2023-04-15T07:21:29.687Z,67.49
2023-04-15T07:24:01.892Z,66.58
2023-04-15T07:26:35.663Z,65.79
2023-04-15T07:29:04.250Z,63.86
2023-04-15T07:31:32.816Z,62.56
2023-04-15T07:34:01.260Z,61.58
2023-04-15T07:36:31.621Z,59.63
2023-04-15T07:39:02.382Z,58.85
2023-04-15T07:41:31.951Z,59.17
2023-04-15T07:44:02.959Z,59.91
2023-04-15T07:46:31.416Z,58.49
2023-04-15T07:49:03.987Z,56.68
2023-04-15T07:51:32.445Z,54.68
2023-04-15T07:56:32.821Z,51.53
2023-04-15T07:59:04.864Z,50.97
2023-04-15T08:01:35.926Z,50.41
2023-04-15T08:04:04.226Z,50.05
2023-04-15T08:06:33.741Z,49.36
2023-04-15T08:09:03.374Z,48.34
2023-04-15T08:11:33.870Z,47.69
2023-04-15T08:14:07.672Z,47.02
2023-04-15T08:16:40.942Z,46.19
2023-04-15T08:19:11.730Z,45.22
2023-04-15T08:21:41.132Z,43.26
2023-04-15T08:24:09.608Z,40.65
2023-04-15T08:26:43.906Z,38.11
2023-04-15T08:29:15.766Z,35.97
2023-04-15T08:31:45.884Z,35.08
2023-04-15T08:34:14.187Z,35.51
2023-04-15T08:36:43.233Z,35.30
2023-04-15T08:39:14.486Z,34.21
2023-04-15T08:41:52.843Z,33.21
2023-04-15T08:44:21.047Z,32.81
2023-04-15T08:46:53.377Z,32.76
2023-04-15T08:49:22.994Z,32.36
2023-04-15T08:51:51.076Z,31.34
2023-04-15T08:54:22.952Z,30.08
2023-04-15T08:56:51.054Z,29.94
2023-04-15T08:59:22.089Z,30.40
2023-04-15T09:01:51.539Z,30.87
2023-04-15T09:04:19.938Z,29.88
2023-04-15T09:06:48.911Z,28.17
2023-04-15T09:09:17.204Z,25.73
2023-04-15T09:11:50.073Z,24.33
2023-04-15T09:14:18.419Z,23.00
2023-04-15T09:17:00.156Z,21.79
2023-04-15T09:19:28.866Z,20.42
2023-04-15T09:21:59.201Z,19.68
2023-04-15T09:24:37.642Z,19.63
2023-04-15T09:27:06.205Z,19.79
2023-04-15T09:29:34.880Z,19.22
2023-04-15T09:32:13.426Z,18.35
2023-04-15T09:34:41.932Z,17.33
2023-04-15T09:37:11.293Z,16.04
2023-04-15T09:39:52.242Z,14.87
2023-04-15T09:42:27.538Z,13.86
2023-04-15T09:44:55.591Z,13.82
2023-04-15T09:47:41.899Z,12.97
2023-04-15T09:50:14.683Z,11.04
2023-04-15T09:52:45.843Z,9.69
2023-04-15T09:55:14.668Z,8.86
2023-04-15T09:57:46.081Z,9.22
2023-04-15T10:00:18.330Z,9.88
2023-04-15T10:02:50.054Z,9.77
2023-04-15T10:05:18.157Z,9.31
2023-04-15T10:07:48.451Z,8.75
2023-04-15T10:10:16.883Z,9.20
2023-04-15T10:12:45.441Z,9.80
2023-04-15T10:15:16.706Z,9.73
2023-04-15T10:17:46.437Z,8.08
2023-04-15T10:20:15.586Z,5.63
2023-04-15T10:22:44.296Z,3.70
2023-04-15T10:25:14.061Z,2.73
2023-04-15T10:27:42.331Z,2.08
2023-04-15T10:30:11.782Z,1.54
2023-04-15T10:32:41.662Z,1.01
2023-04-15T10:35:09.827Z,0.29
2023-04-15T10:37:39.919Z,0.04
2023-04-15T10:40:28.713Z,0.00
2023-04-15T10:42:59.803Z,0.00
2023-04-15T10:45:29.151Z,0.00
2023-04-15T10:47:58.200Z,0.00
2023-04-15T10:53:03.600Z,0.75
2023-04-15T10:55:33.012Z,0.00
2023-04-15T10:58:02.197Z,0.00
2023-04-15T11:00:32.322Z,0.00
2023-04-15T11:03:06.923Z,0.00
2023-04-15T11:05:41.663Z,0.00
2023-04-15T11:08:10.762Z,0.00
2023-04-15T11:10:39.334Z,0.00
2023-04-15T11:15:43.189Z,0.00
2023-04-15T11:18:21.068Z,0.00
2023-04-15T11:20:50.584Z,0.00
2023-04-15T11:23:19.760Z,0.00
2023-04-15T11:25:49.122Z,0.00
2023-04-15T11:28:17.177Z,0.00
2023-04-15T11:30:46.016Z,0.00
2023-04-15T11:33:14.393Z,0.00
2023-04-15T11:35:43.182Z,0.00
2023-04-15T11:38:13.184Z,0.00
2023-04-15T11:40:43.824Z,0.00
2023-04-15T11:43:21.027Z,0.00
2023-04-15T11:45:51.593Z,0.00
2023-04-15T11:48:31.677Z,0.00
2023-04-15T11:51:04.341Z,0.00
2023-04-15T11:53:49.798Z,0.00
2023-04-15T11:56:22.021Z,0.00
2023-04-15T11:58:57.264Z,0.00
2023-04-15T12:01:35.488Z,0.00
2023-04-15T12:04:06.606Z,0.00
2023-04-15T12:06:39.405Z,0.00
2023-04-15T12:09:13.995Z,0.00
2023-04-15T12:11:51.258Z,0.00
2023-04-15T12:14:28.484Z,0.00
2023-04-15T12:17:05.079Z,0.00
2023-04-15T12:19:37.731Z,0.00
2023-04-15T12:22:15.549Z,0.00
2023-04-15T12:24:47.117Z,0.00
2023-04-15T12:27:17.846Z,0.00
2023-04-15T12:29:45.951Z,0.00
2023-04-15T12:32:21.067Z,0.00
2023-04-15T12:34:53.956Z,0.00
2023-04-15T12:37:22.211Z,0.00
2023-04-15T12:42:31.527Z,0.00
2023-04-15T12:44:59.525Z,0.00
2023-04-15T12:47:27.960Z,0.00
2023-04-15T12:49:56.816Z,0.00
2023-04-15T12:52:25.682Z,0.00
2023-04-15T12:54:53.774Z,0.00
2023-04-15T12:57:22.425Z,0.00
2023-04-15T12:59:50.690Z,0.00
2023-04-15T13:02:21.396Z,0.00
2023-04-15T13:04:50.451Z,0.00
2023-04-15T13:07:18.847Z,0.00
2023-04-15T13:09:46.971Z,0.00
2023-04-15T13:12:16.379Z,0.00
2023-04-15T13:14:44.546Z,0.00
2023-04-15T13:17:12.765Z,0.00
2023-04-15T13:19:40.905Z,0.00
2023-04-15T13:22:09.360Z,0.00
2023-04-15T13:24:39.412Z,0.00
2023-04-15T13:29:51.678Z,0.00
2023-04-15T13:34:57.148Z,0.00
2023-04-15T13:37:28.500Z,0.00
2023-04-15T13:39:57.502Z,0.00
2023-04-15T13:44:51.890Z,0.00
2023-04-15T13:47:20.641Z,0.00
2023-04-15T13:49:48.770Z,0.00
2023-04-15T13:52:16.948Z,0.00
2023-04-15T13:54:45.656Z,0.00
2023-04-15T13:57:15.025Z,0.00
2023-04-15T13:59:44.279Z,0.00
2023-04-15T14:02:15.242Z,0.00
2023-04-15T14:04:43.928Z,0.00
2023-04-15T14:07:13.200Z,0.00
2023-04-15T14:09:43.276Z,0.00
2023-04-15T14:12:12.326Z,0.00
2023-04-15T14:14:41.386Z,0.00
2023-04-15T14:17:09.636Z,0.00
2023-04-15T14:19:37.789Z,0.00
2023-04-15T14:22:06.291Z,0.00
2023-04-15T14:24:37.388Z,0.00
2023-04-15T14:27:06.489Z,0.00
2023-04-15T14:29:34.906Z,0.00
2023-04-15T14:32:08.777Z,0.00
2023-04-15T14:34:43.392Z,0.00
2023-04-15T14:37:11.607Z,0.00
2023-04-15T14:39:39.971Z,0.00
2023-04-15T14:42:10.085Z,0.00
2023-04-15T14:44:38.258Z,0.00
2023-04-15T14:47:06.442Z,0.00
2023-04-15T14:52:21.042Z,0.00
2023-04-15T14:56:31.095Z,0.00
2023-04-15T14:58:59.182Z,0.00
2023-04-15T15:01:27.501Z,0.00
2023-04-15T15:09:46.979Z,0.00
2023-04-15T15:12:15.308Z,0.00
2023-04-15T15:16:11.404Z,0.10
2023-04-15T15:18:40.463Z,0.00
2023-04-15T15:21:07.144Z,0.00
2023-04-15T15:23:34.089Z,0.00
2023-04-15T15:26:02.103Z,0.00
2023-04-15T15:28:28.921Z,0.00
2023-04-15T15:30:56.861Z,0.00
2023-04-15T15:33:24.288Z,0.00
2023-04-15T15:35:51.145Z,0.19
2023-04-15T15:38:17.787Z,1.75
2023-04-15T15:40:44.607Z,4.31
2023-04-15T15:43:11.226Z,6.91
2023-04-15T15:45:38.603Z,9.70
2023-04-15T15:48:06.936Z,13.12
2023-04-15T15:50:34.714Z,17.41
2023-04-15T15:53:01.540Z,21.81
2023-04-15T15:55:28.650Z,25.98
2023-04-15T15:57:55.532Z,31.05
2023-04-15T16:00:22.655Z,35.92
2023-04-15T16:03:06.180Z,40.59
2023-04-15T16:05:35.321Z,44.82
2023-04-15T16:08:02.349Z,49.22
2023-04-15T16:10:29.416Z,52.74
2023-04-15T16:12:56.231Z,56.32
2023-04-15T16:15:24.603Z,60.19
2023-04-15T16:17:51.541Z,65.24
2023-04-15T16:20:20.421Z,75.06
2023-04-15T16:22:47.079Z,78.33
2023-04-15T16:25:16.420Z,82.12
2023-04-15T16:27:57.148Z,86.74
2023-04-15T16:30:28.815Z,92.99
2023-04-15T16:32:56.530Z,96.83
2023-04-15T16:35:23.537Z,99.89
2023-04-15T16:37:50.254Z,100.00
2023-04-15T16:40:17.142Z,100.00
2023-04-15T16:42:49.947Z,100.00
2023-04-15T16:45:19.723Z,100.00
2023-04-15T16:47:46.437Z,100.00
2023-04-15T16:50:13.019Z,100.00
2023-04-15T16:52:40.087Z,100.00
2023-04-15T16:55:06.829Z,100.00
2023-04-15T16:58:00.524Z,100.00
2023-04-15T17:00:21.363Z,100.00
2023-04-15T17:02:48.088Z,100.00
2023-04-15T17:05:14.957Z,100.00
2023-04-15T17:07:44.206Z,100.00
2023-04-15T17:10:13.187Z,100.00
2023-04-15T17:13:51.688Z,100.00
2023-04-15T17:16:19.783Z,100.00
2023-04-15T17:18:47.986Z,100.00
2023-04-15T17:21:17.290Z,100.00
2023-04-15T17:23:45.575Z,100.00
2023-04-15T17:26:13.830Z,100.00
2023-04-15T17:28:41.858Z,100.00
2023-04-15T17:31:11.552Z,100.00
2023-04-15T17:34:02.499Z,100.00
2023-04-15T17:36:28.242Z,100.00
2023-04-15T17:41:05.277Z,100.00
2023-04-15T17:43:31.951Z,100.00
2023-04-15T17:45:58.986Z,100.00
2023-04-15T17:48:25.834Z,100.00
2023-04-15T17:50:52.798Z,100.00
2023-04-15T17:53:20.448Z,100.00
2023-04-15T17:55:47.013Z,100.00
2023-04-15T17:58:13.627Z,100.00
2023-04-15T18:00:40.370Z,100.00
2023-04-15T18:03:07.146Z,100.00
2023-04-15T18:05:35.462Z,100.00
2023-04-15T18:08:02.076Z,100.00
2023-04-15T18:10:29.698Z,100.00
2023-04-15T18:12:56.607Z,100.00
2023-04-15T18:15:23.162Z,100.00
2023-04-15T18:17:50.134Z,100.00
2023-04-15T18:20:22.823Z,100.00
2023-04-15T18:22:51.288Z,100.00
2023-04-15T18:25:18.290Z,100.00
2023-04-15T18:27:46.810Z,100.00
2023-04-15T18:30:13.669Z,100.00
2023-04-15T18:35:29.346Z,100.00
2023-04-15T18:37:58.004Z,100.00
2023-04-15T18:40:27.251Z,100.00
2023-04-15T18:42:55.156Z,100.00
2023-04-15T18:45:22.087Z,100.00
2023-04-15T18:47:50.349Z,100.00
2023-04-15T18:50:17.478Z,100.00
2023-04-15T18:52:44.532Z,100.00
2023-04-15T18:55:17.164Z,100.00
2023-04-15T18:57:46.145Z,100.00
2023-04-15T19:00:18.692Z,100.00
2023-04-15T19:02:47.186Z,100.00
2023-04-15T19:05:16.219Z,100.00
2023-04-15T19:07:44.434Z,100.00
2023-04-15T19:10:12.201Z,100.00
2023-04-15T19:12:42.167Z,100.00
2023-04-15T19:15:11.804Z,100.00
2023-04-15T19:17:39.057Z,100.00
2023-04-15T19:20:08.127Z,100.00
2023-04-15T19:22:35.993Z,100.00
2023-04-15T19:25:04.681Z,100.00
2023-04-15T19:27:31.736Z,100.00
2023-04-15T19:30:01.287Z,100.00
2023-04-15T19:32:28.303Z,100.00
2023-04-15T19:34:54.973Z,100.00
2023-04-15T19:37:21.979Z,100.00
2023-04-15T19:39:48.871Z,100.00
2023-04-15T19:42:16.517Z,100.00
2023-04-15T19:44:43.271Z,100.00
2023-04-15T19:47:12.196Z,100.00
2023-04-15T19:49:39.120Z,100.00
2023-04-15T19:52:06.450Z,100.00
2023-04-15T19:54:33.153Z,100.00
2023-04-15T19:57:01.503Z,100.00
2023-04-15T19:59:32.354Z,100.00
2023-04-15T20:02:01.865Z,100.00
2023-04-15T20:04:31.867Z,100.00
2023-04-15T20:06:58.545Z,100.00
2023-04-15T20:09:27.656Z,100.00
2023-04-15T20:12:45.605Z,100.00
2023-04-15T20:14:45.703Z,100.00
2023-04-15T20:17:13.894Z,100.00
2023-04-15T20:19:41.025Z,100.00
2023-04-15T20:22:07.607Z,100.00
2023-04-15T20:24:34.372Z,100.00
2023-04-15T20:27:01.409Z,100.00
2023-04-15T20:29:28.216Z,100.00
2023-04-15T20:31:55.781Z,100.00
2023-04-15T20:34:22.432Z,100.00
2023-04-15T20:36:49.121Z,100.00
2023-04-15T20:39:16.645Z,100.00
2023-04-15T20:41:43.301Z,100.00
2023-04-15T20:44:10.746Z,100.00
2023-04-15T20:46:37.459Z,100.00
2023-04-15T20:49:04.443Z,100.00
2023-04-15T20:51:36.893Z,100.00
2023-04-15T20:54:04.425Z,100.00
2023-04-15T20:56:31.251Z,100.00
2023-04-15T20:58:58.891Z,100.00
2023-04-15T21:01:26.748Z,100.00
2023-04-15T21:03:53.627Z,100.00
2023-04-15T21:06:20.376Z,100.00
2023-04-15T21:08:47.002Z,100.00
2023-04-15T21:11:18.312Z,100.00
2023-04-15T21:13:50.946Z,100.00
2023-04-15T21:16:17.739Z,100.00
2023-04-15T21:21:17.921Z,100.00
2023-04-15T21:23:48.040Z,100.00
2023-04-15T21:26:16.019Z,100.00
2023-04-15T21:28:44.086Z,100.00
2023-04-15T21:31:12.137Z,100.00
2023-04-15T21:33:42.875Z,100.00
2023-04-15T21:36:11.005Z,100.00
2023-04-15T21:38:42.100Z,100.00
2023-04-15T21:41:12.953Z,100.00
2023-04-15T21:43:40.984Z,100.00
2023-04-15T21:46:23.685Z,100.00
2023-04-15T21:48:53.372Z,100.00
2023-04-15T21:51:21.813Z,100.00
2023-04-15T21:53:50.487Z,100.00
2023-04-15T21:56:20.753Z,100.00
2023-04-15T21:58:48.720Z,100.00
2023-04-15T22:01:17.286Z,100.00
2023-04-15T22:03:45.781Z,100.00
2023-04-15T22:06:14.083Z,100.00
2023-04-15T22:08:55.113Z,100.00
2023-04-15T22:11:28.223Z,100.00
2023-04-15T22:13:57.500Z,100.00
2023-04-15T22:16:26.773Z,100.00
2023-04-15T22:18:55.987Z,100.00
2023-04-15T22:21:24.291Z,100.00
2023-04-15T22:23:52.820Z,100.00
2023-04-15T22:26:41.778Z,100.00
2023-04-15T22:29:09.855Z,100.00
2023-04-15T22:31:38.037Z,100.00
2023-04-15T22:34:06.140Z,100.00
2023-04-15T22:36:37.431Z,100.00
2023-04-15T22:39:06.199Z,100.00
2023-04-15T22:41:35.916Z,100.00
2023-04-15T22:44:03.944Z,100.00
2023-04-15T22:46:33.932Z,100.00
2023-04-15T22:49:02.119Z,100.00
2023-04-15T22:51:30.412Z,100.00
2023-04-15T22:53:58.622Z,100.00
2023-04-15T22:56:26.648Z,100.00
2023-04-15T22:58:54.968Z,100.00
2023-04-15T23:01:22.921Z,100.00
2023-04-15T23:03:56.964Z,100.00
2023-04-15T23:06:32.758Z,100.00
2023-04-15T23:09:01.333Z,100.00
2023-04-15T23:11:32.943Z,100.00
2023-04-15T23:14:01.619Z,100.00
2023-04-15T23:16:32.064Z,100.00
2023-04-15T23:19:00.322Z,100.00
2023-04-15T23:21:30.334Z,100.00
2023-04-15T23:23:58.391Z,100.00
2023-04-15T23:26:27.468Z,100.00
2023-04-15T23:28:58.462Z,100.00
2023-04-15T23:31:26.483Z,100.00
2023-04-15T23:33:54.503Z,100.00
2023-04-15T23:36:22.460Z,100.00
2023-04-15T23:38:50.574Z,100.00
2023-04-15T23:41:18.642Z,100.00
2023-04-15T23:43:51.746Z,100.00
2023-04-15T23:46:21.507Z,100.00
2023-04-15T23:48:49.928Z,100.00
2023-04-15T23:51:17.876Z,100.00
2023-04-15T23:53:47.197Z,100.00
2023-04-15T23:56:15.856Z,100.00
2023-04-15T23:58:43.886Z,100.00
